Aqualeader — A8ZC4 — position and weather

sailwx.info

Track history (hours):
 
Tides and Currents Weather Stations Pressure Air Temp Water Temp Dewpoint Dewpoint Depression Visibility Wind Speed Wind Dir Waves Ship Positions

Aqualeader

Last reported at 2018-Jun-04 01:49 UTC. Time now 2018-Jun-25 11:33 UTC.
Position N 28°33' W 116°56'.
Warning: this ship's position is 21 days out of date.

Length 249 m; draft 8.2 m.

Type: Ship. MMSI: 636015175.

Date/timePositionNaut miles runAvg speedWind from/ knotsBaromVisibWave heightAir tempDewpointWater temp
2018-Jun-04 01:49N 28°33' W 116°56'16613.4
2018-Jun-03 13:25N 30°52' W 118°39'813.9
2018-Jun-03 12:52N 30°59' W 118°44'514.0
2018-Jun-03 12:30N 31°03' W 118°47'713.5
2018-Jun-03 12:00N 31°08' W 118°52'713.2
2018-Jun-03 11:30N 31°14' W 118°56'713.1
2018-Jun-03 10:59N 31°20' W 118°59'1113.0
2018-Jun-03 10:07N 31°30' W 119°04'612.9
2018-Jun-03 09:40N 31°35' W 119°08'413.1
2018-Jun-03 09:23N 31°38' W 119°10'513.3
2018-Jun-03 08:59N 31°43' W 119°14'613.6
2018-Jun-03 08:30N 31°48' W 119°18'813.7
2018-Jun-03 07:57N 31°55' W 119°22'2913.5
2018-Jun-03 05:46N 32°20' W 119°41'713.1
2018-Jun-03 05:13N 32°26' W 119°46'313.1
2018-Jun-03 04:59N 32°28' W 119°47'1213.2
2018-Jun-03 04:05N 32°38' W 119°55'113.4
2018-Jun-03 04:00N 32°39' W 119°56'913.0
2018-Jun-03 03:20N 32°47' W 120°01'413.4
2018-Jun-03 03:00N 32°50' W 120°04'713.1
2018-Jun-03 02:30N 32°56' W 120°08'713.6
2018-Jun-03 02:01N 33°02' W 120°12'714.0
2018-Jun-03 01:31N 33°08' W 120°17'714.3
2018-Jun-03 01:01N 33°14' W 120°21'713.9
2018-Jun-03 00:29N 33°20' W 120°26'713.9
2018-Jun-03 00:00N 33°25' W 120°30'714.2
2018-Jun-02 23:30N 33°32' W 120°35'714.6
2018-Jun-02 22:59N 33°38' W 120°39'714.0
2018-Jun-02 22:30N 33°44' W 120°44'814.0
2018-Jun-02 21:54N 33°51' W 120°49'613.9
2018-Jun-02 21:28N 33°56' W 120°53'1013.9
2018-Jun-02 20:45N 34°04' W 120°59'413.7
2018-Jun-02 20:27N 34°08' W 121°02'613.3
2018-Jun-02 19:58N 34°14' W 121°05'812.9
2018-Jun-02 19:20N 34°21' W 121°10'613.7
2018-Jun-02 18:56N 34°26' W 121°13'713.6
2018-Jun-02 18:26N 34°32' W 121°17'614.1
2018-Jun-02 17:58N 34°38' W 121°21'714.0
2018-Jun-02 17:30N 34°43' W 121°24'713.7
2018-Jun-02 16:59N 34°50' W 121°29'713.7
2018-Jun-02 16:30N 34°56' W 121°32'713.4
2018-Jun-02 15:58N 35°02' W 121°36'813.5
2018-Jun-02 15:22N 35°09' W 121°40'513.1
2018-Jun-02 15:00N 35°13' W 121°43'713.6
2018-Jun-02 14:28N 35°20' W 121°48'914.1
2018-Jun-02 13:52N 35°27' W 121°53'512.3
2018-Jun-02 13:29N 35°31' W 121°56'713.9
2018-Jun-02 13:00N 35°37' W 121°59'913.7
2018-Jun-02 12:22N 35°45' W 122°04'713.7
2018-Jun-02 11:53N 35°51' W 122°08'615.3
2018-Jun-02 11:31N 35°56' W 122°11'713.3
2018-Jun-02 11:00N 36°02' W 122°15'914.2
2018-Jun-02 10:24N 36°09' W 122°20'614.1
2018-Jun-02 10:00N 36°14' W 122°23'714.0
2018-Jun-02 09:30N 36°20' W 122°27'713.7
2018-Jun-02 09:00N 36°27' W 122°31'713.5
2018-Jun-02 08:30N 36°33' W 122°35'713.4
2018-Jun-02 08:00N 36°39' W 122°39'713.5
2018-Jun-02 07:30N 36°45' W 122°42'713.7
2018-Jun-02 06:59N 36°51' W 122°46'713.9
2018-Jun-02 06:31N 36°57' W 122°50'713.8
2018-Jun-02 06:00N 37°03' W 122°54'713.8
2018-Jun-02 05:30N 37°09' W 122°58'713.8
2018-Jun-02 05:00N 37°15' W 123°02'714.0
2018-Jun-02 04:30N 37°22' W 123°05'713.8
2018-Jun-02 04:00N 37°28' W 123°10'612.9
2018-Jun-02 03:31N 37°33' W 123°05'713.5
2018-Jun-02 03:01N 37°37' W 122°58'713.6
2018-Jun-02 02:30N 37°41' W 122°51'612.7
2018-Jun-02 02:00N 37°44' W 122°44'4 8.9
2018-Jun-02 01:30N 37°46' W 122°39'714.0
2018-Jun-02 01:00N 37°48' W 122°31'612.0
2018-Jun-02 00:30N 37°53' W 122°25'713.1
2018-Jun-02 00:01N 37°59' W 122°26'612.1
2018-Jun-01 23:30N 38°03' W 122°20'4 8.7
2018-Jun-01 23:01N 38°04' W 122°14'5 9.4
2018-Jun-01 22:30N 38°02' W 122°09'1 0.0
2018-May-31 20:10N 38°02' W 122°07'0 0.9
2018-May-31 20:00N 38°02' W 122°08'2 3.8
2018-May-31 19:21N 38°03' W 122°11'3 7.5
2018-May-31 19:00N 38°04' W 122°14'4 8.2
2018-May-31 18:30N 38°03' W 122°19'510.2
2018-May-31 18:00N 38°01' W 122°24'5 9.7
2018-May-31 17:30N 37°56' W 122°27'5 9.4
2018-May-31 17:00N 37°52' W 122°25'3 5.6
2018-May-31 16:30N 37°49' W 122°26'510.0
2018-May-31 16:00N 37°48' W 122°32'612.5
2018-May-31 15:30N 37°45' W 122°39'5 9.3
2018-May-31 15:00N 37°43' W 122°44'3 5.5
2018-May-31 14:30N 37°41' W 122°47'4 8.9
2018-May-31 14:00N 37°38' W 122°51'4 7.9
2018-May-31 13:30N 37°36' W 122°55'5 9.1
2018-May-31 13:00N 37°34' W 123°00'4 8.3
2018-May-31 12:30N 37°32' W 123°05'5 8.9
2018-May-31 11:58N 37°29' W 123°10'4 8.1
2018-May-31 11:30N 37°26' W 123°10'4 5.7
2018-May-31 10:48N 37°23' W 123°06'2 7.9
2018-May-31 10:30N 37°21' W 123°05'12 7.2
2018-May-31 08:50N 37°10' W 122°58'4 9.8
2018-May-31 08:26N 37°07' W 122°56'1 2.4
2018-May-31 07:59N 37°08' W 122°55'511.2
2018-May-31 07:30N 37°12' W 122°59'611.4
2018-May-31 06:58N 37°18' W 123°03'511.3
2018-May-31 06:30N 37°22' W 123°06'2 3.1
2018-May-31 06:00N 37°24' W 123°06'1 1.8
2018-May-31 05:30N 37°23' W 123°05'1 1.8
2018-May-31 04:57N 37°22' W 123°05'1 1.6
2018-May-31 04:30N 37°21' W 123°04'1 1.9
2018-May-31 03:58N 37°20' W 123°04'1 2.2
2018-May-31 03:30N 37°20' W 123°03'1 1.9
2018-May-31 02:50N 37°18' W 123°02'1 1.7
2018-May-31 02:30N 37°18' W 123°02'1 2.0
2018-May-31 02:00N 37°17' W 123°02'4 6.1
2018-May-31 01:25N 37°13' W 123°00'5 9.2
2018-May-31 00:54N 37°09' W 122°58'4 9.0
2018-May-31 00:25N 37°05' W 122°55'9 8.4
2018-May-30 23:20N 36°57' W 122°50'3 8.4
2018-May-30 22:59N 36°55' W 122°48'4 8.5
2018-May-30 22:30N 36°51' W 122°46'82 8.6
2018-May-30 12:55N 35°40' W 121°55'4 9.3
2018-May-30 12:30N 35°37' W 121°53'5 9.5
2018-May-30 12:00N 35°32' W 121°50'9 9.3
2018-May-30 11:04N 35°25' W 121°45'1 9.1
2018-May-30 11:00N 35°24' W 121°44'510.2
2018-May-30 10:30N 35°20' W 121°41'510.3
2018-May-30 10:00N 35°16' W 121°38'510.2
2018-May-30 09:30N 35°11' W 121°35'611.3
2018-May-30 09:00N 35°07' W 121°31'611.2
2018-May-30 08:30N 35°02' W 121°27'611.2
2018-May-30 08:00N 34°57' W 121°24'611.6
2018-May-30 07:30N 34°52' W 121°20'611.8
2018-May-30 07:00N 34°47' W 121°16'611.1
2018-May-30 06:30N 34°42' W 121°13'611.6
2018-May-30 06:00N 34°37' W 121°10'611.8
2018-May-30 05:30N 34°32' W 121°06'611.6
2018-May-30 05:00N 34°27' W 121°03'612.1
2018-May-30 04:30N 34°22' W 120°58'612.1
2018-May-30 04:00N 34°17' W 120°54'612.1
2018-May-30 03:30N 34°12' W 120°50'611.9
2018-May-30 02:58N 34°07' W 120°46'712.2
2018-May-30 02:25N 34°01' W 120°42'512.5
2018-May-30 02:00N 33°56' W 120°39'612.2
2018-May-30 01:30N 33°51' W 120°35'611.5
2018-May-30 01:00N 33°46' W 120°31'611.6
2018-May-30 00:30N 33°41' W 120°27'611.1
2018-May-30 00:00N 33°37' W 120°23'611.9
2018-May-29 23:30N 33°37' W 120°16'611.8
2018-May-29 23:00N 33°38' W 120°09'612.1
2018-May-29 22:30N 33°38' W 120°01'612.1
2018-May-29 22:00N 33°38' W 119°54'612.1
2018-May-29 21:30N 33°38' W 119°47'612.4
2018-May-29 21:00N 33°38' W 119°39'712.6
2018-May-29 20:29N 33°38' W 119°32'612.7
2018-May-29 20:00N 33°38' W 119°24'713.0
2018-May-29 19:28N 33°38' W 119°16'711.8
2018-May-29 18:55N 33°38' W 119°08'511.8
2018-May-29 18:30N 33°38' W 119°02'611.8
2018-May-29 17:59N 33°38' W 118°55'611.9
2018-May-29 17:30N 33°38' W 118°48'611.6
2018-May-29 16:59N 33°38' W 118°41'611.9
2018-May-29 16:30N 33°38' W 118°34'611.8
2018-May-29 16:00N 33°38' W 118°27'711.7
2018-May-29 15:24N 33°38' W 118°18'411.1
2018-May-29 15:00N 33°38' W 118°13'3 5.7
2018-May-29 14:30N 33°41' W 118°12'3 6.5
2018-May-29 14:00N 33°44' W 118°12'2 3.4
2018-May-29 13:30N 33°45' W 118°13'0 0.5
2018-May-29 13:00N 33°45' W 118°13'0 0.0
2018-May-29 12:30N 33°45' W 118°13'0 0.0
2018-May-29 12:00N 33°45' W 118°13'0 0.0
2018-May-29 11:30N 33°45' W 118°13'0 0.0
2018-May-29 11:00N 33°45' W 118°13'0 0.0
2018-May-29 10:30N 33°45' W 118°13'0 0.0
2018-May-29 10:00N 33°45' W 118°13'0 0.0
2018-May-29 09:30N 33°45' W 118°13'0 0.0
2018-May-29 09:00N 33°45' W 118°13'0 0.0
2018-May-29 08:30N 33°45' W 118°13'0 0.0
2018-May-29 08:00N 33°45' W 118°13'0 0.0
2018-May-29 07:30N 33°45' W 118°13'0 0.0
2018-May-29 07:00N 33°45' W 118°13'0 0.0
2018-May-29 06:30N 33°45' W 118°13'0 0.0
2018-May-29 06:00N 33°45' W 118°13'0 0.0
2018-May-29 05:30N 33°45' W 118°13'0 0.0
2018-May-29 05:00N 33°45' W 118°13'0 0.0
2018-May-29 04:30N 33°45' W 118°13'0 0.0
2018-May-29 04:00N 33°45' W 118°13'0 0.0
2018-May-29 03:30N 33°45' W 118°13'0 0.0
2018-May-29 03:00N 33°45' W 118°13'0 0.0
2018-May-29 02:30N 33°45' W 118°13'0 0.0
2018-May-29 02:00N 33°45' W 118°13'0 0.0
2018-May-29 01:30N 33°45' W 118°13'0 0.0
2018-May-29 01:00N 33°45' W 118°13'0 0.0
2018-May-29 00:30N 33°45' W 118°13'0 0.0
2018-May-29 00:00N 33°45' W 118°13'0 0.0
2018-May-28 23:30N 33°45' W 118°13'0 0.0
2018-May-28 23:00N 33°45' W 118°13'0 0.0
2018-May-28 22:30N 33°45' W 118°13'0 0.0
2018-May-28 22:00N 33°45' W 118°13'0 0.0
2018-May-28 21:29N 33°45' W 118°13'0 0.0
2018-May-28 21:00N 33°45' W 118°13'0 0.0
2018-May-28 20:30N 33°45' W 118°13'0 0.0
2018-May-28 20:00N 33°45' W 118°13'0 0.0
2018-May-28 19:30N 33°45' W 118°13'0 0.0
2018-May-28 19:00N 33°45' W 118°13'0 0.0
2018-May-28 18:30N 33°45' W 118°13'0 0.0
2018-May-28 18:00N 33°45' W 118°13'0 0.0
2018-May-28 17:30N 33°45' W 118°13'0 0.0
2018-May-28 17:00N 33°45' W 118°13'0 0.0
2018-May-28 16:30N 33°45' W 118°13'0 0.0
2018-May-28 16:00N 33°45' W 118°13'0 0.0
2018-May-28 15:30N 33°45' W 118°13'0 0.0
2018-May-28 15:00N 33°45' W 118°13'0 0.0
2018-May-28 14:30N 33°45' W 118°13'0 0.0
2018-May-28 14:00N 33°45' W 118°13'0 0.0
2018-May-28 13:30N 33°45' W 118°13'1 2.0
2018-May-28 13:00N 33°44' W 118°13'3 5.9
2018-May-28 12:30N 33°44' W 118°09'0 0.0
2018-May-28 11:59N 33°44' W 118°09'0 0.0
2018-May-28 11:29N 33°44' W 118°09'0 0.0
2018-May-28 10:59N 33°44' W 118°09'0 0.0
2018-May-28 10:29N 33°44' W 118°09'0 0.0
2018-May-28 09:59N 33°44' W 118°09'0 0.0
2018-May-28 09:29N 33°44' W 118°09'0 0.0
2018-May-28 08:59N 33°44' W 118°09'0 0.1
2018-May-28 08:29N 33°44' W 118°09'0 0.0
2018-May-28 07:59N 33°44' W 118°09'0 0.0
2018-May-28 07:29N 33°44' W 118°09'0 0.1
2018-May-28 06:59N 33°44' W 118°09'0 0.0
2018-May-28 06:29N 33°44' W 118°09'0 0.0
2018-May-28 05:59N 33°44' W 118°09'0 0.0
2018-May-28 05:29N 33°44' W 118°09'0 0.0
2018-May-28 04:59N 33°44' W 118°09'0 0.0
2018-May-28 04:29N 33°44' W 118°09'0 0.0
2018-May-28 03:59N 33°44' W 118°09'0 0.0
2018-May-28 03:23N 33°44' W 118°09'0 0.0
2018-May-28 02:59N 33°44' W 118°09'0 0.0
2018-May-28 02:29N 33°44' W 118°09'0 0.0
2018-May-28 01:59N 33°44' W 118°09'0 0.0
2018-May-28 01:20N 33°44' W 118°09'0 0.0
2018-May-28 00:59N 33°44' W 118°09'0 0.0
2018-May-28 00:29N 33°44' W 118°09'0 0.0
2018-May-27 23:59N 33°44' W 118°09'0 0.0
2018-May-27 23:26N 33°44' W 118°09'0 0.0
2018-May-27 22:59N 33°44' W 118°09'0 0.0
2018-May-27 22:29N 33°44' W 118°09'0 0.0
2018-May-27 21:59N 33°44' W 118°09'0 0.0
2018-May-27 21:29N 33°44' W 118°09'0 0.0
2018-May-27 20:59N 33°44' W 118°09'0 0.0
2018-May-27 20:29N 33°44' W 118°09'0 0.1
2018-May-27 19:59N 33°44' W 118°09'0 0.0
2018-May-27 19:29N 33°44' W 118°09'0 0.1
2018-May-27 18:59N 33°44' W 118°09'0 0.1
2018-May-27 18:29N 33°44' W 118°09'0 0.1
2018-May-27 17:59N 33°44' W 118°10'0 0.0
2018-May-27 17:29N 33°44' W 118°10'0 0.0
2018-May-27 16:59N 33°44' W 118°10'0 0.0
2018-May-27 16:29N 33°44' W 118°10'0 0.0
2018-May-27 15:59N 33°44' W 118°10'0 0.0
2018-May-27 15:29N 33°44' W 118°10'0 0.1
2018-May-27 14:59N 33°44' W 118°09'0 0.0
2018-May-27 14:26N 33°44' W 118°09'0 0.0
2018-May-27 13:56N 33°44' W 118°09'0 0.0
2018-May-27 13:29N 33°44' W 118°09'0 0.1
2018-May-27 12:56N 33°44' W 118°09'0 0.0
2018-May-27 12:29N 33°44' W 118°09'0 0.1
2018-May-27 11:56N 33°44' W 118°09'0 0.1
2018-May-27 11:29N 33°44' W 118°09'0 0.1
2018-May-27 10:59N 33°44' W 118°09'0 0.1
2018-May-27 10:29N 33°44' W 118°09'0 0.0
2018-May-27 09:56N 33°44' W 118°09'0 0.0
2018-May-27 09:29N 33°44' W 118°09'0 0.0
2018-May-27 08:59N 33°44' W 118°09'0 0.0
2018-May-27 08:29N 33°44' W 118°09'0 0.0
2018-May-27 07:59N 33°44' W 118°09'0 0.0
2018-May-27 07:29N 33°44' W 118°09'0 0.0
2018-May-27 06:59N 33°44' W 118°09'0 0.0
2018-May-27 06:29N 33°44' W 118°09'0 0.0
2018-May-27 05:59N 33°44' W 118°09'0 0.1
2018-May-27 05:29N 33°44' W 118°09'0 0.1
2018-May-27 04:59N 33°44' W 118°09'0 0.0
2018-May-27 04:29N 33°44' W 118°09'0 0.0
2018-May-27 03:59N 33°44' W 118°09'0 0.0
2018-May-27 03:29N 33°44' W 118°09'0 0.0
2018-May-27 02:59N 33°44' W 118°09'0 0.0
2018-May-27 02:29N 33°44' W 118°09'0 0.0
2018-May-27 01:59N 33°44' W 118°09'0 0.0
2018-May-27 01:29N 33°44' W 118°09'0 0.0
2018-May-27 00:59N 33°44' W 118°09'0 0.0
2018-May-27 00:26N 33°44' W 118°09'0 0.0
2018-May-26 23:59N 33°44' W 118°09'0 0.0
2018-May-26 23:26N 33°44' W 118°09'0 0.0
2018-May-26 22:59N 33°44' W 118°09'0 0.0
2018-May-26 22:29N 33°44' W 118°09'0 0.0
2018-May-26 21:59N 33°44' W 118°09'0 0.0
2018-May-26 21:26N 33°44' W 118°09'0 0.0
2018-May-26 20:59N 33°44' W 118°09'0 0.0
2018-May-26 20:29N 33°44' W 118°09'0 0.0
2018-May-26 19:59N 33°44' W 118°09'0 0.0
2018-May-26 19:29N 33°44' W 118°09'0 0.0
2018-May-26 18:59N 33°44' W 118°09'0 0.1
2018-May-26 18:29N 33°44' W 118°09'0 0.0
2018-May-26 17:59N 33°44' W 118°09'0 0.0
2018-May-26 17:29N 33°44' W 118°09'0 0.0
2018-May-26 16:56N 33°44' W 118°09'0 0.0
2018-May-26 16:23N 33°44' W 118°09'0 0.0
2018-May-26 15:59N 33°44' W 118°09'0 0.1
2018-May-26 15:29N 33°44' W 118°09'0 0.0
2018-May-26 14:59N 33°44' W 118°09'0 0.0
2018-May-26 14:29N 33°44' W 118°09'0 0.1
2018-May-26 13:59N 33°44' W 118°09'0 0.1
2018-May-26 13:29N 33°44' W 118°09'0 0.0
2018-May-26 12:59N 33°44' W 118°09'0 0.0
2018-May-26 12:29N 33°44' W 118°09'0 0.0
2018-May-26 11:59N 33°44' W 118°09'0 0.0
2018-May-26 11:29N 33°44' W 118°09'0 0.1
2018-May-26 10:59N 33°44' W 118°09'0 0.0
2018-May-26 10:29N 33°44' W 118°09'0 0.0
2018-May-26 09:59N 33°44' W 118°09'0 0.0
2018-May-26 09:29N 33°44' W 118°09'0 0.0
2018-May-26 08:59N 33°44' W 118°09'0 0.0
2018-May-26 08:29N 33°44' W 118°09'0 0.0
2018-May-26 07:59N 33°44' W 118°09'0 0.0
2018-May-26 07:29N 33°44' W 118°09'0 0.0
2018-May-26 06:59N 33°44' W 118°09'0 0.0
2018-May-26 06:29N 33°44' W 118°09'0 0.0
2018-May-26 05:26N 33°44' W 118°09'0 0.0
2018-May-26 04:59N 33°44' W 118°09'0 0.0
2018-May-26 04:29N 33°44' W 118°09'0 0.0
2018-May-26 03:59N 33°44' W 118°09'0 0.0
2018-May-26 03:29N 33°44' W 118°09'0 0.0
2018-May-26 02:59N 33°44' W 118°09'0 0.0
2018-May-26 02:29N 33°44' W 118°09'0 0.0
2018-May-26 01:59N 33°44' W 118°09'0 0.0
2018-May-26 01:29N 33°44' W 118°09'0 0.0
2018-May-26 00:59N 33°44' W 118°09'0 0.0
2018-May-26 00:29N 33°44' W 118°09'0 0.0
2018-May-25 23:59N 33°44' W 118°09'0 0.0
2018-May-25 23:29N 33°44' W 118°09'0 0.0
2018-May-25 22:59N 33°44' W 118°09'0 0.0
2018-May-25 22:29N 33°44' W 118°09'0 0.0
2018-May-25 21:59N 33°44' W 118°09'0 0.0
2018-May-25 21:29N 33°44' W 118°09'0 0.0
2018-May-25 20:59N 33°44' W 118°09'0 0.0
2018-May-25 20:29N 33°44' W 118°09'0 0.0
2018-May-25 19:59N 33°44' W 118°09'0 0.0
2018-May-25 19:29N 33°44' W 118°09'0 0.0
2018-May-25 18:59N 33°44' W 118°09'0 0.0
2018-May-25 18:29N 33°44' W 118°09'0 0.0
2018-May-25 17:59N 33°44' W 118°09'0 0.0
2018-May-25 17:29N 33°44' W 118°09'0 0.0
2018-May-25 16:59N 33°44' W 118°09'0 0.1
2018-May-25 16:29N 33°44' W 118°09'0 0.1
2018-May-25 15:59N 33°44' W 118°09'0 0.1
2018-May-25 15:29N 33°44' W 118°09'0 0.0
2018-May-25 14:59N 33°44' W 118°09'0 0.0
2018-May-25 14:29N 33°44' W 118°09'0 0.1
2018-May-25 13:59N 33°44' W 118°09'0 0.1
2018-May-25 13:29N 33°44' W 118°09'0 0.1
2018-May-25 12:59N 33°44' W 118°09'0 0.0
2018-May-25 12:26N 33°44' W 118°09'0 0.0
2018-May-25 11:59N 33°44' W 118°09'0 0.0
2018-May-25 11:29N 33°44' W 118°09'0 0.0
2018-May-25 10:59N 33°44' W 118°09'0 0.0
2018-May-25 10:29N 33°44' W 118°09'0 0.0
2018-May-25 09:56N 33°44' W 118°09'0 0.0
2018-May-25 09:26N 33°44' W 118°09'0 0.0
2018-May-25 08:59N 33°44' W 118°09'0 0.0
2018-May-25 08:29N 33°44' W 118°09'0 0.0
2018-May-25 07:59N 33°44' W 118°09'0 0.0
2018-May-25 07:29N 33°44' W 118°09'0 0.0
2018-May-25 06:59N 33°44' W 118°09'0 0.0
2018-May-25 06:26N 33°44' W 118°09'0 0.0
2018-May-25 05:59N 33°44' W 118°09'0 0.0
2018-May-25 05:29N 33°44' W 118°09'0 0.0
2018-May-25 04:59N 33°44' W 118°09'0 0.0
2018-May-25 04:29N 33°44' W 118°09'0 0.0
2018-May-25 03:56N 33°44' W 118°09'0 0.0
2018-May-25 03:29N 33°44' W 118°09'0 0.0
2018-May-25 02:59N 33°44' W 118°09'0 0.0
2018-May-25 02:29N 33°44' W 118°09'0 0.0
2018-May-25 01:59N 33°44' W 118°09'  
Track history (hours):
 
Tides and Currents Weather Stations Pressure Air Temp Water Temp Dewpoint Dewpoint Depression Visibility Wind Speed Wind Dir Waves Ship Positions

Aqualeader

Last reported at 2018-Jun-04 01:49 UTC. Time now 2018-Jun-25 11:33 UTC.
Position N 28°33' W 116°56'.
Warning: this ship's position is 21 days out of date.

Length 249 m; draft 8.2 m.

Type: Ship. MMSI: 636015175.

Date/timePositionNaut miles runAvg speedWind from/ knotsBaromVisibWave heightAir tempDewpointWater temp
2018-Jun-04 01:49N 28°33' W 116°56'16613.4
2018-Jun-03 13:25N 30°52' W 118°39'813.9
2018-Jun-03 12:52N 30°59' W 118°44'514.0
2018-Jun-03 12:30N 31°03' W 118°47'713.5
2018-Jun-03 12:00N 31°08' W 118°52'713.2
2018-Jun-03 11:30N 31°14' W 118°56'713.1
2018-Jun-03 10:59N 31°20' W 118°59'1113.0
2018-Jun-03 10:07N 31°30' W 119°04'612.9
2018-Jun-03 09:40N 31°35' W 119°08'413.1
2018-Jun-03 09:23N 31°38' W 119°10'513.3
2018-Jun-03 08:59N 31°43' W 119°14'613.6
2018-Jun-03 08:30N 31°48' W 119°18'813.7
2018-Jun-03 07:57N 31°55' W 119°22'2913.5
2018-Jun-03 05:46N 32°20' W 119°41'713.1
2018-Jun-03 05:13N 32°26' W 119°46'313.1
2018-Jun-03 04:59N 32°28' W 119°47'1213.2
2018-Jun-03 04:05N 32°38' W 119°55'113.4
2018-Jun-03 04:00N 32°39' W 119°56'913.0
2018-Jun-03 03:20N 32°47' W 120°01'413.4
2018-Jun-03 03:00N 32°50' W 120°04'713.1
2018-Jun-03 02:30N 32°56' W 120°08'713.6
2018-Jun-03 02:01N 33°02' W 120°12'714.0
2018-Jun-03 01:31N 33°08' W 120°17'714.3
2018-Jun-03 01:01N 33°14' W 120°21'713.9
2018-Jun-03 00:29N 33°20' W 120°26'713.9
2018-Jun-03 00:00N 33°25' W 120°30'714.2
2018-Jun-02 23:30N 33°32' W 120°35'714.6
2018-Jun-02 22:59N 33°38' W 120°39'714.0
2018-Jun-02 22:30N 33°44' W 120°44'814.0
2018-Jun-02 21:54N 33°51' W 120°49'613.9
2018-Jun-02 21:28N 33°56' W 120°53'1013.9
2018-Jun-02 20:45N 34°04' W 120°59'413.7
2018-Jun-02 20:27N 34°08' W 121°02'613.3
2018-Jun-02 19:58N 34°14' W 121°05'812.9
2018-Jun-02 19:20N 34°21' W 121°10'613.7
2018-Jun-02 18:56N 34°26' W 121°13'713.6
2018-Jun-02 18:26N 34°32' W 121°17'614.1
2018-Jun-02 17:58N 34°38' W 121°21'714.0
2018-Jun-02 17:30N 34°43' W 121°24'713.7
2018-Jun-02 16:59N 34°50' W 121°29'713.7
2018-Jun-02 16:30N 34°56' W 121°32'713.4
2018-Jun-02 15:58N 35°02' W 121°36'813.5
2018-Jun-02 15:22N 35°09' W 121°40'513.1
2018-Jun-02 15:00N 35°13' W 121°43'713.6
2018-Jun-02 14:28N 35°20' W 121°48'914.1
2018-Jun-02 13:52N 35°27' W 121°53'512.3
2018-Jun-02 13:29N 35°31' W 121°56'713.9
2018-Jun-02 13:00N 35°37' W 121°59'913.7
2018-Jun-02 12:22N 35°45' W 122°04'713.7
2018-Jun-02 11:53N 35°51' W 122°08'615.3
2018-Jun-02 11:31N 35°56' W 122°11'713.3
2018-Jun-02 11:00N 36°02' W 122°15'914.2
2018-Jun-02 10:24N 36°09' W 122°20'614.1
2018-Jun-02 10:00N 36°14' W 122°23'714.0
2018-Jun-02 09:30N 36°20' W 122°27'713.7
2018-Jun-02 09:00N 36°27' W 122°31'713.5
2018-Jun-02 08:30N 36°33' W 122°35'713.4
2018-Jun-02 08:00N 36°39' W 122°39'713.5
2018-Jun-02 07:30N 36°45' W 122°42'713.7
2018-Jun-02 06:59N 36°51' W 122°46'713.9
2018-Jun-02 06:31N 36°57' W 122°50'713.8
2018-Jun-02 06:00N 37°03' W 122°54'713.8
2018-Jun-02 05:30N 37°09' W 122°58'713.8
2018-Jun-02 05:00N 37°15' W 123°02'714.0
2018-Jun-02 04:30N 37°22' W 123°05'713.8
2018-Jun-02 04:00N 37°28' W 123°10'612.9
2018-Jun-02 03:31N 37°33' W 123°05'713.5
2018-Jun-02 03:01N 37°37' W 122°58'713.6
2018-Jun-02 02:30N 37°41' W 122°51'612.7
2018-Jun-02 02:00N 37°44' W 122°44'4 8.9
2018-Jun-02 01:30N 37°46' W 122°39'714.0
2018-Jun-02 01:00N 37°48' W 122°31'612.0
2018-Jun-02 00:30N 37°53' W 122°25'713.1
2018-Jun-02 00:01N 37°59' W 122°26'612.1
2018-Jun-01 23:30N 38°03' W 122°20'4 8.7
2018-Jun-01 23:01N 38°04' W 122°14'5 9.4
2018-Jun-01 22:30N 38°02' W 122°09'1 0.0
2018-May-31 20:10N 38°02' W 122°07'0 0.9
2018-May-31 20:00N 38°02' W 122°08'2 3.8
2018-May-31 19:21N 38°03' W 122°11'3 7.5
2018-May-31 19:00N 38°04' W 122°14'4 8.2
2018-May-31 18:30N 38°03' W 122°19'510.2
2018-May-31 18:00N 38°01' W 122°24'5 9.7
2018-May-31 17:30N 37°56' W 122°27'5 9.4
2018-May-31 17:00N 37°52' W 122°25'3 5.6
2018-May-31 16:30N 37°49' W 122°26'510.0
2018-May-31 16:00N 37°48' W 122°32'612.5
2018-May-31 15:30N 37°45' W 122°39'5 9.3
2018-May-31 15:00N 37°43' W 122°44'3 5.5
2018-May-31 14:30N 37°41' W 122°47'4 8.9
2018-May-31 14:00N 37°38' W 122°51'4 7.9
2018-May-31 13:30N 37°36' W 122°55'5 9.1
2018-May-31 13:00N 37°34' W 123°00'4 8.3
2018-May-31 12:30N 37°32' W 123°05'5 8.9
2018-May-31 11:58N 37°29' W 123°10'4 8.1
2018-May-31 11:30N 37°26' W 123°10'4 5.7
2018-May-31 10:48N 37°23' W 123°06'2 7.9
2018-May-31 10:30N 37°21' W 123°05'12 7.2
2018-May-31 08:50N 37°10' W 122°58'4 9.8
2018-May-31 08:26N 37°07' W 122°56'1 2.4
2018-May-31 07:59N 37°08' W 122°55'511.2
2018-May-31 07:30N 37°12' W 122°59'611.4
2018-May-31 06:58N 37°18' W 123°03'511.3
2018-May-31 06:30N 37°22' W 123°06'2 3.1
2018-May-31 06:00N 37°24' W 123°06'1 1.8
2018-May-31 05:30N 37°23' W 123°05'1 1.8
2018-May-31 04:57N 37°22' W 123°05'1 1.6
2018-May-31 04:30N 37°21' W 123°04'1 1.9
2018-May-31 03:58N 37°20' W 123°04'1 2.2
2018-May-31 03:30N 37°20' W 123°03'1 1.9
2018-May-31 02:50N 37°18' W 123°02'1 1.7
2018-May-31 02:30N 37°18' W 123°02'1 2.0
2018-May-31 02:00N 37°17' W 123°02'4 6.1
2018-May-31 01:25N 37°13' W 123°00'5 9.2
2018-May-31 00:54N 37°09' W 122°58'4 9.0
2018-May-31 00:25N 37°05' W 122°55'9 8.4
2018-May-30 23:20N 36°57' W 122°50'3 8.4
2018-May-30 22:59N 36°55' W 122°48'4 8.5
2018-May-30 22:30N 36°51' W 122°46'82 8.6
2018-May-30 12:55N 35°40' W 121°55'4 9.3
2018-May-30 12:30N 35°37' W 121°53'5 9.5
2018-May-30 12:00N 35°32' W 121°50'9 9.3
2018-May-30 11:04N 35°25' W 121°45'1 9.1
2018-May-30 11:00N 35°24' W 121°44'510.2
2018-May-30 10:30N 35°20' W 121°41'510.3
2018-May-30 10:00N 35°16' W 121°38'510.2
2018-May-30 09:30N 35°11' W 121°35'611.3
2018-May-30 09:00N 35°07' W 121°31'611.2
2018-May-30 08:30N 35°02' W 121°27'611.2
2018-May-30 08:00N 34°57' W 121°24'611.6
2018-May-30 07:30N 34°52' W 121°20'611.8
2018-May-30 07:00N 34°47' W 121°16'611.1
2018-May-30 06:30N 34°42' W 121°13'611.6
2018-May-30 06:00N 34°37' W 121°10'611.8
2018-May-30 05:30N 34°32' W 121°06'611.6
2018-May-30 05:00N 34°27' W 121°03'612.1
2018-May-30 04:30N 34°22' W 120°58'612.1
2018-May-30 04:00N 34°17' W 120°54'612.1
2018-May-30 03:30N 34°12' W 120°50'611.9
2018-May-30 02:58N 34°07' W 120°46'712.2
2018-May-30 02:25N 34°01' W 120°42'512.5
2018-May-30 02:00N 33°56' W 120°39'612.2
2018-May-30 01:30N 33°51' W 120°35'611.5
2018-May-30 01:00N 33°46' W 120°31'611.6
2018-May-30 00:30N 33°41' W 120°27'611.1
2018-May-30 00:00N 33°37' W 120°23'611.9
2018-May-29 23:30N 33°37' W 120°16'611.8
2018-May-29 23:00N 33°38' W 120°09'612.1
2018-May-29 22:30N 33°38' W 120°01'612.1
2018-May-29 22:00N 33°38' W 119°54'612.1
2018-May-29 21:30N 33°38' W 119°47'612.4
2018-May-29 21:00N 33°38' W 119°39'712.6
2018-May-29 20:29N 33°38' W 119°32'612.7
2018-May-29 20:00N 33°38' W 119°24'713.0
2018-May-29 19:28N 33°38' W 119°16'711.8
2018-May-29 18:55N 33°38' W 119°08'511.8
2018-May-29 18:30N 33°38' W 119°02'611.8
2018-May-29 17:59N 33°38' W 118°55'611.9
2018-May-29 17:30N 33°38' W 118°48'611.6
2018-May-29 16:59N 33°38' W 118°41'611.9
2018-May-29 16:30N 33°38' W 118°34'611.8
2018-May-29 16:00N 33°38' W 118°27'711.7
2018-May-29 15:24N 33°38' W 118°18'411.1
2018-May-29 15:00N 33°38' W 118°13'3 5.7
2018-May-29 14:30N 33°41' W 118°12'3 6.5
2018-May-29 14:00N 33°44' W 118°12'2 3.4
2018-May-29 13:30N 33°45' W 118°13'0 0.5
2018-May-29 13:00N 33°45' W 118°13'0 0.0
2018-May-29 12:30N 33°45' W 118°13'0 0.0
2018-May-29 12:00N 33°45' W 118°13'0 0.0
2018-May-29 11:30N 33°45' W 118°13'0 0.0
2018-May-29 11:00N 33°45' W 118°13'0 0.0
2018-May-29 10:30N 33°45' W 118°13'0 0.0
2018-May-29 10:00N 33°45' W 118°13'0 0.0
2018-May-29 09:30N 33°45' W 118°13'0 0.0
2018-May-29 09:00N 33°45' W 118°13'0 0.0
2018-May-29 08:30N 33°45' W 118°13'0 0.0
2018-May-29 08:00N 33°45' W 118°13'0 0.0
2018-May-29 07:30N 33°45' W 118°13'0 0.0
2018-May-29 07:00N 33°45' W 118°13'0 0.0
2018-May-29 06:30N 33°45' W 118°13'0 0.0
2018-May-29 06:00N 33°45' W 118°13'0 0.0
2018-May-29 05:30N 33°45' W 118°13'0 0.0
2018-May-29 05:00N 33°45' W 118°13'0 0.0
2018-May-29 04:30N 33°45' W 118°13'0 0.0
2018-May-29 04:00N 33°45' W 118°13'0 0.0
2018-May-29 03:30N 33°45' W 118°13'0 0.0
2018-May-29 03:00N 33°45' W 118°13'0 0.0
2018-May-29 02:30N 33°45' W 118°13'0 0.0
2018-May-29 02:00N 33°45' W 118°13'0 0.0
2018-May-29 01:30N 33°45' W 118°13'0 0.0
2018-May-29 01:00N 33°45' W 118°13'0 0.0
2018-May-29 00:30N 33°45' W 118°13'0 0.0
2018-May-29 00:00N 33°45' W 118°13'0 0.0
2018-May-28 23:30N 33°45' W 118°13'0 0.0
2018-May-28 23:00N 33°45' W 118°13'0 0.0
2018-May-28 22:30N 33°45' W 118°13'0 0.0
2018-May-28 22:00N 33°45' W 118°13'0 0.0
2018-May-28 21:29N 33°45' W 118°13'0 0.0
2018-May-28 21:00N 33°45' W 118°13'0 0.0
2018-May-28 20:30N 33°45' W 118°13'0 0.0
2018-May-28 20:00N 33°45' W 118°13'0 0.0
2018-May-28 19:30N 33°45' W 118°13'0 0.0
2018-May-28 19:00N 33°45' W 118°13'0 0.0
2018-May-28 18:30N 33°45' W 118°13'0 0.0
2018-May-28 18:00N 33°45' W 118°13'0 0.0
2018-May-28 17:30N 33°45' W 118°13'0 0.0
2018-May-28 17:00N 33°45' W 118°13'0 0.0
2018-May-28 16:30N 33°45' W 118°13'0 0.0
2018-May-28 16:00N 33°45' W 118°13'0 0.0
2018-May-28 15:30N 33°45' W 118°13'0 0.0
2018-May-28 15:00N 33°45' W 118°13'0 0.0
2018-May-28 14:30N 33°45' W 118°13'0 0.0
2018-May-28 14:00N 33°45' W 118°13'0 0.0
2018-May-28 13:30N 33°45' W 118°13'1 2.0
2018-May-28 13:00N 33°44' W 118°13'3 5.9
2018-May-28 12:30N 33°44' W 118°09'0 0.0
2018-May-28 11:59N 33°44' W 118°09'0 0.0
2018-May-28 11:29N 33°44' W 118°09'0 0.0
2018-May-28 10:59N 33°44' W 118°09'0 0.0
2018-May-28 10:29N 33°44' W 118°09'0 0.0
2018-May-28 09:59N 33°44' W 118°09'0 0.0
2018-May-28 09:29N 33°44' W 118°09'0 0.0
2018-May-28 08:59N 33°44' W 118°09'0 0.1
2018-May-28 08:29N 33°44' W 118°09'0 0.0
2018-May-28 07:59N 33°44' W 118°09'0 0.0
2018-May-28 07:29N 33°44' W 118°09'0 0.1
2018-May-28 06:59N 33°44' W 118°09'0 0.0
2018-May-28 06:29N 33°44' W 118°09'0 0.0
2018-May-28 05:59N 33°44' W 118°09'0 0.0
2018-May-28 05:29N 33°44' W 118°09'0 0.0
2018-May-28 04:59N 33°44' W 118°09'0 0.0
2018-May-28 04:29N 33°44' W 118°09'0 0.0
2018-May-28 03:59N 33°44' W 118°09'0 0.0
2018-May-28 03:23N 33°44' W 118°09'0 0.0
2018-May-28 02:59N 33°44' W 118°09'0 0.0
2018-May-28 02:29N 33°44' W 118°09'0 0.0
2018-May-28 01:59N 33°44' W 118°09'0 0.0
2018-May-28 01:20N 33°44' W 118°09'0 0.0
2018-May-28 00:59N 33°44' W 118°09'0 0.0
2018-May-28 00:29N 33°44' W 118°09'0 0.0
2018-May-27 23:59N 33°44' W 118°09'0 0.0
2018-May-27 23:26N 33°44' W 118°09'0 0.0
2018-May-27 22:59N 33°44' W 118°09'0 0.0
2018-May-27 22:29N 33°44' W 118°09'0 0.0
2018-May-27 21:59N 33°44' W 118°09'0 0.0
2018-May-27 21:29N 33°44' W 118°09'0 0.0
2018-May-27 20:59N 33°44' W 118°09'0 0.0
2018-May-27 20:29N 33°44' W 118°09'0 0.1
2018-May-27 19:59N 33°44' W 118°09'0 0.0
2018-May-27 19:29N 33°44' W 118°09'0 0.1
2018-May-27 18:59N 33°44' W 118°09'0 0.1
2018-May-27 18:29N 33°44' W 118°09'0 0.1
2018-May-27 17:59N 33°44' W 118°10'0 0.0
2018-May-27 17:29N 33°44' W 118°10'0 0.0
2018-May-27 16:59N 33°44' W 118°10'0 0.0
2018-May-27 16:29N 33°44' W 118°10'0 0.0
2018-May-27 15:59N 33°44' W 118°10'0 0.0
2018-May-27 15:29N 33°44' W 118°10'0 0.1
2018-May-27 14:59N 33°44' W 118°09'0 0.0
2018-May-27 14:26N 33°44' W 118°09'0 0.0
2018-May-27 13:56N 33°44' W 118°09'0 0.0
2018-May-27 13:29N 33°44' W 118°09'0 0.1
2018-May-27 12:56N 33°44' W 118°09'0 0.0
2018-May-27 12:29N 33°44' W 118°09'0 0.1
2018-May-27 11:56N 33°44' W 118°09'0 0.1
2018-May-27 11:29N 33°44' W 118°09'0 0.1
2018-May-27 10:59N 33°44' W 118°09'0 0.1
2018-May-27 10:29N 33°44' W 118°09'0 0.0
2018-May-27 09:56N 33°44' W 118°09'0 0.0
2018-May-27 09:29N 33°44' W 118°09'0 0.0
2018-May-27 08:59N 33°44' W 118°09'0 0.0
2018-May-27 08:29N 33°44' W 118°09'0 0.0
2018-May-27 07:59N 33°44' W 118°09'0 0.0
2018-May-27 07:29N 33°44' W 118°09'0 0.0
2018-May-27 06:59N 33°44' W 118°09'0 0.0
2018-May-27 06:29N 33°44' W 118°09'0 0.0
2018-May-27 05:59N 33°44' W 118°09'0 0.1
2018-May-27 05:29N 33°44' W 118°09'0 0.1
2018-May-27 04:59N 33°44' W 118°09'0 0.0
2018-May-27 04:29N 33°44' W 118°09'0 0.0
2018-May-27 03:59N 33°44' W 118°09'0 0.0
2018-May-27 03:29N 33°44' W 118°09'0 0.0
2018-May-27 02:59N 33°44' W 118°09'0 0.0
2018-May-27 02:29N 33°44' W 118°09'0 0.0
2018-May-27 01:59N 33°44' W 118°09'0 0.0
2018-May-27 01:29N 33°44' W 118°09'0 0.0
2018-May-27 00:59N 33°44' W 118°09'0 0.0
2018-May-27 00:26N 33°44' W 118°09'0 0.0
2018-May-26 23:59N 33°44' W 118°09'0 0.0
2018-May-26 23:26N 33°44' W 118°09'0 0.0
2018-May-26 22:59N 33°44' W 118°09'0 0.0
2018-May-26 22:29N 33°44' W 118°09'0 0.0
2018-May-26 21:59N 33°44' W 118°09'0 0.0
2018-May-26 21:26N 33°44' W 118°09'0 0.0
2018-May-26 20:59N 33°44' W 118°09'0 0.0
2018-May-26 20:29N 33°44' W 118°09'0 0.0
2018-May-26 19:59N 33°44' W 118°09'0 0.0
2018-May-26 19:29N 33°44' W 118°09'0 0.0
2018-May-26 18:59N 33°44' W 118°09'0 0.1
2018-May-26 18:29N 33°44' W 118°09'0 0.0
2018-May-26 17:59N 33°44' W 118°09'0 0.0
2018-May-26 17:29N 33°44' W 118°09'0 0.0
2018-May-26 16:56N 33°44' W 118°09'0 0.0
2018-May-26 16:23N 33°44' W 118°09'0 0.0
2018-May-26 15:59N 33°44' W 118°09'0 0.1
2018-May-26 15:29N 33°44' W 118°09'0 0.0
2018-May-26 14:59N 33°44' W 118°09'0 0.0
2018-May-26 14:29N 33°44' W 118°09'0 0.1
2018-May-26 13:59N 33°44' W 118°09'0 0.1
2018-May-26 13:29N 33°44' W 118°09'0 0.0
2018-May-26 12:59N 33°44' W 118°09'0 0.0
2018-May-26 12:29N 33°44' W 118°09'0 0.0
2018-May-26 11:59N 33°44' W 118°09'0 0.0
2018-May-26 11:29N 33°44' W 118°09'0 0.1
2018-May-26 10:59N 33°44' W 118°09'0 0.0
2018-May-26 10:29N 33°44' W 118°09'0 0.0
2018-May-26 09:59N 33°44' W 118°09'0 0.0
2018-May-26 09:29N 33°44' W 118°09'0 0.0
2018-May-26 08:59N 33°44' W 118°09'0 0.0
2018-May-26 08:29N 33°44' W 118°09'0 0.0
2018-May-26 07:59N 33°44' W 118°09'0 0.0
2018-May-26 07:29N 33°44' W 118°09'0 0.0
2018-May-26 06:59N 33°44' W 118°09'0 0.0
2018-May-26 06:29N 33°44' W 118°09'0 0.0
2018-May-26 05:26N 33°44' W 118°09'0 0.0
2018-May-26 04:59N 33°44' W 118°09'0 0.0
2018-May-26 04:29N 33°44' W 118°09'0 0.0
2018-May-26 03:59N 33°44' W 118°09'0 0.0
2018-May-26 03:29N 33°44' W 118°09'0 0.0
2018-May-26 02:59N 33°44' W 118°09'0 0.0
2018-May-26 02:29N 33°44' W 118°09'0 0.0
2018-May-26 01:59N 33°44' W 118°09'0 0.0
2018-May-26 01:29N 33°44' W 118°09'0 0.0
2018-May-26 00:59N 33°44' W 118°09'0 0.0
2018-May-26 00:29N 33°44' W 118°09'0 0.0
2018-May-25 23:59N 33°44' W 118°09'0 0.0
2018-May-25 23:29N 33°44' W 118°09'0 0.0
2018-May-25 22:59N 33°44' W 118°09'0 0.0
2018-May-25 22:29N 33°44' W 118°09'0 0.0
2018-May-25 21:59N 33°44' W 118°09'0 0.0
2018-May-25 21:29N 33°44' W 118°09'0 0.0
2018-May-25 20:59N 33°44' W 118°09'0 0.0
2018-May-25 20:29N 33°44' W 118°09'0 0.0
2018-May-25 19:59N 33°44' W 118°09'0 0.0
2018-May-25 19:29N 33°44' W 118°09'0 0.0
2018-May-25 18:59N 33°44' W 118°09'0 0.0
2018-May-25 18:29N 33°44' W 118°09'0 0.0
2018-May-25 17:59N 33°44' W 118°09'0 0.0
2018-May-25 17:29N 33°44' W 118°09'0 0.0
2018-May-25 16:59N 33°44' W 118°09'0 0.1
2018-May-25 16:29N 33°44' W 118°09'0 0.1
2018-May-25 15:59N 33°44' W 118°09'0 0.1
2018-May-25 15:29N 33°44' W 118°09'0 0.0
2018-May-25 14:59N 33°44' W 118°09'0 0.0
2018-May-25 14:29N 33°44' W 118°09'0 0.1
2018-May-25 13:59N 33°44' W 118°09'0 0.1
2018-May-25 13:29N 33°44' W 118°09'0 0.1
2018-May-25 12:59N 33°44' W 118°09'0 0.0
2018-May-25 12:26N 33°44' W 118°09'0 0.0
2018-May-25 11:59N 33°44' W 118°09'0 0.0
2018-May-25 11:29N 33°44' W 118°09'0 0.0
2018-May-25 10:59N 33°44' W 118°09'0 0.0
2018-May-25 10:29N 33°44' W 118°09'0 0.0
2018-May-25 09:56N 33°44' W 118°09'0 0.0
2018-May-25 09:26N 33°44' W 118°09'0 0.0
2018-May-25 08:59N 33°44' W 118°09'0 0.0
2018-May-25 08:29N 33°44' W 118°09'0 0.0
2018-May-25 07:59N 33°44' W 118°09'0 0.0
2018-May-25 07:29N 33°44' W 118°09'0 0.0
2018-May-25 06:59N 33°44' W 118°09'0 0.0
2018-May-25 06:26N 33°44' W 118°09'0 0.0
2018-May-25 05:59N 33°44' W 118°09'0 0.0
2018-May-25 05:29N 33°44' W 118°09'0 0.0
2018-May-25 04:59N 33°44' W 118°09'0 0.0
2018-May-25 04:29N 33°44' W 118°09'0 0.0
2018-May-25 03:56N 33°44' W 118°09'0 0.0
2018-May-25 03:29N 33°44' W 118°09'0 0.0
2018-May-25 02:59N 33°44' W 118°09'0 0.0
2018-May-25 02:29N 33°44' W 118°09'0 0.0
2018-May-25 01:59N 33°44' W 118°09'  

Dump ship's entire track history